sensor_id;sensor_type;location;lat;lon;timestamp;P1;durP1;ratioP1;P2;durP2;ratioP2
8074;SDS011;4080;42.676;23.372;2023-05-07T00:01:34;16.43;;;12.80;;
8074;SDS011;4080;42.676;23.372;2023-05-07T00:04:01;17.20;;;13.40;;
8074;SDS011;4080;42.676;23.372;2023-05-07T00:06:28;14.77;;;12.37;;
8074;SDS011;4080;42.676;23.372;2023-05-07T00:08:55;16.47;;;12.73;;
8074;SDS011;4080;42.676;23.372;2023-05-07T00:11:22;15.53;;;12.00;;
8074;SDS011;4080;42.676;23.372;2023-05-07T00:13:49;18.57;;;12.77;;
8074;SDS011;4080;42.676;23.372;2023-05-07T00:16:17;15.83;;;12.00;;
8074;SDS011;4080;42.676;23.372;2023-05-07T00:18:44;13.70;;;11.40;;
8074;SDS011;4080;42.676;23.372;2023-05-07T00:21:11;14.80;;;12.43;;
8074;SDS011;4080;42.676;23.372;2023-05-07T00:23:38;13.50;;;12.03;;
8074;SDS011;4080;42.676;23.372;2023-05-07T00:26:04;15.17;;;12.57;;
8074;SDS011;4080;42.676;23.372;2023-05-07T00:28:31;13.60;;;11.77;;
8074;SDS011;4080;42.676;23.372;2023-05-07T00:30:58;14.53;;;11.77;;
8074;SDS011;4080;42.676;23.372;2023-05-07T00:33:26;13.47;;;11.43;;
8074;SDS011;4080;42.676;23.372;2023-05-07T00:35:52;14.50;;;11.37;;
8074;SDS011;4080;42.676;23.372;2023-05-07T00:38:20;14.60;;;11.73;;
8074;SDS011;4080;42.676;23.372;2023-05-07T00:40:46;13.80;;;10.53;;
8074;SDS011;4080;42.676;23.372;2023-05-07T00:43:13;14.43;;;11.03;;
8074;SDS011;4080;42.676;23.372;2023-05-07T00:45:40;14.17;;;10.33;;
8074;SDS011;4080;42.676;23.372;2023-05-07T00:48:06;11.93;;;10.20;;
8074;SDS011;4080;42.676;23.372;2023-05-07T00:50:34;13.53;;;10.93;;
8074;SDS011;4080;42.676;23.372;2023-05-07T00:53:01;16.60;;;10.47;;
8074;SDS011;4080;42.676;23.372;2023-05-07T00:55:28;12.00;;;9.93;;
8074;SDS011;4080;42.676;23.372;2023-05-07T00:57:55;12.40;;;11.00;;
8074;SDS011;4080;42.676;23.372;2023-05-07T01:00:22;14.67;;;9.10;;
8074;SDS011;4080;42.676;23.372;2023-05-07T01:02:50;7.67;;;6.87;;
8074;SDS011;4080;42.676;23.372;2023-05-07T01:05:17;8.93;;;7.63;;
8074;SDS011;4080;42.676;23.372;2023-05-07T01:07:48;8.53;;;7.00;;
8074;SDS011;4080;42.676;23.372;2023-05-07T01:10:16;7.87;;;5.93;;
8074;SDS011;4080;42.676;23.372;2023-05-07T01:12:43;8.43;;;6.60;;
8074;SDS011;4080;42.676;23.372;2023-05-07T01:15:12;6.70;;;5.87;;
8074;SDS011;4080;42.676;23.372;2023-05-07T01:17:39;8.40;;;6.63;;
8074;SDS011;4080;42.676;23.372;2023-05-07T01:20:07;7.30;;;6.57;;
8074;SDS011;4080;42.676;23.372;2023-05-07T01:22:37;10.63;;;6.73;;
8074;SDS011;4080;42.676;23.372;2023-05-07T01:25:05;10.10;;;6.80;;
8074;SDS011;4080;42.676;23.372;2023-05-07T01:27:33;6.40;;;5.80;;
8074;SDS011;4080;42.676;23.372;2023-05-07T01:30:00;6.60;;;5.90;;
8074;SDS011;4080;42.676;23.372;2023-05-07T01:32:28;8.17;;;5.77;;
8074;SDS011;4080;42.676;23.372;2023-05-07T01:34:59;7.13;;;6.23;;
8074;SDS011;4080;42.676;23.372;2023-05-07T01:37:27;7.77;;;5.70;;
8074;SDS011;4080;42.676;23.372;2023-05-07T01:39:56;6.77;;;6.07;;
8074;SDS011;4080;42.676;23.372;2023-05-07T01:42:23;8.63;;;6.50;;
8074;SDS011;4080;42.676;23.372;2023-05-07T01:44:50;8.47;;;6.10;;
8074;SDS011;4080;42.676;23.372;2023-05-07T01:47:17;9.33;;;6.07;;
8074;SDS011;4080;42.676;23.372;2023-05-07T01:49:44;9.33;;;6.50;;
8074;SDS011;4080;42.676;23.372;2023-05-07T01:52:11;7.43;;;6.73;;
8074;SDS011;4080;42.676;23.372;2023-05-07T01:54:38;8.20;;;7.33;;
8074;SDS011;4080;42.676;23.372;2023-05-07T01:57:06;10.03;;;8.27;;
8074;SDS011;4080;42.676;23.372;2023-05-07T01:59:32;10.67;;;8.77;;
8074;SDS011;4080;42.676;23.372;2023-05-07T02:01:59;10.83;;;8.93;;
8074;SDS011;4080;42.676;23.372;2023-05-07T02:04:26;9.87;;;8.57;;
8074;SDS011;4080;42.676;23.372;2023-05-07T02:06:53;10.10;;;8.20;;
8074;SDS011;4080;42.676;23.372;2023-05-07T02:09:20;9.83;;;8.53;;
8074;SDS011;4080;42.676;23.372;2023-05-07T02:11:48;11.57;;;8.03;;
8074;SDS011;4080;42.676;23.372;2023-05-07T02:14:16;10.47;;;8.03;;
8074;SDS011;4080;42.676;23.372;2023-05-07T02:16:43;9.90;;;7.80;;
8074;SDS011;4080;42.676;23.372;2023-05-07T02:19:09;10.13;;;8.23;;
8074;SDS011;4080;42.676;23.372;2023-05-07T02:21:36;10.83;;;8.00;;
8074;SDS011;4080;42.676;23.372;2023-05-07T02:24:03;11.47;;;9.70;;
8074;SDS011;4080;42.676;23.372;2023-05-07T02:26:30;14.03;;;9.17;;
8074;SDS011;4080;42.676;23.372;2023-05-07T02:28:56;9.97;;;8.77;;
8074;SDS011;4080;42.676;23.372;2023-05-07T02:31:24;12.13;;;9.73;;
8074;SDS011;4080;42.676;23.372;2023-05-07T02:33:51;11.97;;;9.50;;
8074;SDS011;4080;42.676;23.372;2023-05-07T02:36:18;12.67;;;9.67;;
8074;SDS011;4080;42.676;23.372;2023-05-07T02:38:44;14.33;;;10.40;;
8074;SDS011;4080;42.676;23.372;2023-05-07T02:41:11;12.30;;;9.53;;
8074;SDS011;4080;42.676;23.372;2023-05-07T02:43:38;12.03;;;9.57;;
8074;SDS011;4080;42.676;23.372;2023-05-07T02:46:05;12.20;;;10.90;;
8074;SDS011;4080;42.676;23.372;2023-05-07T02:48:34;12.93;;;10.23;;
8074;SDS011;4080;42.676;23.372;2023-05-07T02:51:01;13.27;;;10.60;;
8074;SDS011;4080;42.676;23.372;2023-05-07T02:53:29;11.80;;;10.57;;
8074;SDS011;4080;42.676;23.372;2023-05-07T02:55:56;14.27;;;11.77;;
8074;SDS011;4080;42.676;23.372;2023-05-07T02:58:24;11.80;;;10.53;;
8074;SDS011;4080;42.676;23.372;2023-05-07T03:00:50;17.87;;;12.23;;
8074;SDS011;4080;42.676;23.372;2023-05-07T03:03:17;15.53;;;12.53;;
8074;SDS011;4080;42.676;23.372;2023-05-07T03:05:46;13.90;;;12.17;;
8074;SDS011;4080;42.676;23.372;2023-05-07T03:08:12;14.47;;;12.93;;
8074;SDS011;4080;42.676;23.372;2023-05-07T03:10:39;15.70;;;13.07;;
8074;SDS011;4080;42.676;23.372;2023-05-07T03:13:06;13.97;;;12.17;;
8074;SDS011;4080;42.676;23.372;2023-05-07T03:15:32;15.33;;;13.33;;
8074;SDS011;4080;42.676;23.372;2023-05-07T03:17:59;15.13;;;13.53;;
8074;SDS011;4080;42.676;23.372;2023-05-07T03:20:26;15.97;;;12.87;;
8074;SDS011;4080;42.676;23.372;2023-05-07T03:22:54;15.07;;;13.50;;
8074;SDS011;4080;42.676;23.372;2023-05-07T03:25:20;18.23;;;14.30;;
8074;SDS011;4080;42.676;23.372;2023-05-07T03:27:47;16.20;;;14.00;;
8074;SDS011;4080;42.676;23.372;2023-05-07T03:30:14;17.80;;;14.90;;
8074;SDS011;4080;42.676;23.372;2023-05-07T03:32:41;16.93;;;13.87;;
8074;SDS011;4080;42.676;23.372;2023-05-07T03:35:07;17.10;;;14.50;;
8074;SDS011;4080;42.676;23.372;2023-05-07T03:37:34;15.90;;;13.30;;
8074;SDS011;4080;42.676;23.372;2023-05-07T03:40:03;14.27;;;12.90;;
8074;SDS011;4080;42.676;23.372;2023-05-07T03:42:30;14.77;;;12.60;;
8074;SDS011;4080;42.676;23.372;2023-05-07T03:44:57;14.73;;;13.03;;
8074;SDS011;4080;42.676;23.372;2023-05-07T03:47:24;14.13;;;12.07;;
8074;SDS011;4080;42.676;23.372;2023-05-07T03:49:50;14.53;;;13.00;;
8074;SDS011;4080;42.676;23.372;2023-05-07T03:52:19;16.87;;;13.40;;
8074;SDS011;4080;42.676;23.372;2023-05-07T03:54:48;19.53;;;12.33;;
8074;SDS011;4080;42.676;23.372;2023-05-07T03:57:17;18.03;;;11.87;;
8074;SDS011;4080;42.676;23.372;2023-05-07T03:59:43;15.10;;;13.50;;
8074;SDS011;4080;42.676;23.372;2023-05-07T04:02:10;17.13;;;12.50;;
8074;SDS011;4080;42.676;23.372;2023-05-07T04:04:37;17.00;;;13.13;;
8074;SDS011;4080;42.676;23.372;2023-05-07T04:07:04;15.47;;;13.87;;
8074;SDS011;4080;42.676;23.372;2023-05-07T04:09:30;15.67;;;13.03;;
8074;SDS011;4080;42.676;23.372;2023-05-07T04:11:57;15.27;;;13.33;;
8074;SDS011;4080;42.676;23.372;2023-05-07T04:14:25;17.10;;;13.47;;
8074;SDS011;4080;42.676;23.372;2023-05-07T04:16:52;14.63;;;12.10;;
8074;SDS011;4080;42.676;23.372;2023-05-07T04:19:18;14.93;;;13.43;;
8074;SDS011;4080;42.676;23.372;2023-05-07T04:21:45;15.03;;;12.67;;
8074;SDS011;4080;42.676;23.372;2023-05-07T04:24:12;16.40;;;13.37;;
8074;SDS011;4080;42.676;23.372;2023-05-07T04:26:39;17.80;;;13.20;;
8074;SDS011;4080;42.676;23.372;2023-05-07T04:29:05;16.20;;;13.50;;
8074;SDS011;4080;42.676;23.372;2023-05-07T04:31:33;17.90;;;13.03;;
8074;SDS011;4080;42.676;23.372;2023-05-07T04:34:00;15.70;;;13.23;;
8074;SDS011;4080;42.676;23.372;2023-05-07T04:36:27;15.23;;;12.30;;
8074;SDS011;4080;42.676;23.372;2023-05-07T04:38:54;13.37;;;11.37;;
8074;SDS011;4080;42.676;23.372;2023-05-07T04:41:20;13.03;;;11.37;;
8074;SDS011;4080;42.676;23.372;2023-05-07T04:43:47;13.03;;;11.77;;
8074;SDS011;4080;42.676;23.372;2023-05-07T04:46:14;14.57;;;11.80;;
8074;SDS011;4080;42.676;23.372;2023-05-07T04:48:42;14.67;;;11.40;;
8074;SDS011;4080;42.676;23.372;2023-05-07T04:51:08;13.17;;;11.50;;
8074;SDS011;4080;42.676;23.372;2023-05-07T04:53:36;12.27;;;10.60;;
8074;SDS011;4080;42.676;23.372;2023-05-07T04:56:03;11.93;;;9.67;;
8074;SDS011;4080;42.676;23.372;2023-05-07T04:58:30;11.97;;;10.77;;
8074;SDS011;4080;42.676;23.372;2023-05-07T05:00:57;16.47;;;11.10;;
8074;SDS011;4080;42.676;23.372;2023-05-07T05:03:23;12.33;;;10.57;;
8074;SDS011;4080;42.676;23.372;2023-05-07T05:05:52;12.40;;;11.07;;
8074;SDS011;4080;42.676;23.372;2023-05-07T05:08:18;13.10;;;10.73;;
8074;SDS011;4080;42.676;23.372;2023-05-07T05:10:45;11.30;;;10.07;;
8074;SDS011;4080;42.676;23.372;2023-05-07T05:13:13;13.10;;;10.90;;
8074;SDS011;4080;42.676;23.372;2023-05-07T05:15:40;13.13;;;11.57;;
8074;SDS011;4080;42.676;23.372;2023-05-07T05:18:07;15.17;;;11.17;;
8074;SDS011;4080;42.676;23.372;2023-05-07T05:20:33;11.97;;;10.77;;
8074;SDS011;4080;42.676;23.372;2023-05-07T05:23:01;11.73;;;10.53;;
8074;SDS011;4080;42.676;23.372;2023-05-07T05:25:28;12.27;;;10.60;;
8074;SDS011;4080;42.676;23.372;2023-05-07T05:27:55;12.70;;;10.30;;
8074;SDS011;4080;42.676;23.372;2023-05-07T05:30:21;11.67;;;10.43;;
8074;SDS011;4080;42.676;23.372;2023-05-07T05:32:48;11.73;;;10.43;;
8074;SDS011;4080;42.676;23.372;2023-05-07T05:35:15;14.93;;;11.10;;
8074;SDS011;4080;42.676;23.372;2023-05-07T05:37:41;13.90;;;10.60;;
8074;SDS011;4080;42.676;23.372;2023-05-07T05:40:10;11.30;;;10.20;;
8074;SDS011;4080;42.676;23.372;2023-05-07T05:42:37;13.33;;;11.03;;
8074;SDS011;4080;42.676;23.372;2023-05-07T05:45:05;11.73;;;10.50;;
8074;SDS011;4080;42.676;23.372;2023-05-07T05:47:32;14.83;;;10.40;;
8074;SDS011;4080;42.676;23.372;2023-05-07T05:49:59;11.23;;;10.13;;
8074;SDS011;4080;42.676;23.372;2023-05-07T05:52:25;12.13;;;10.83;;
8074;SDS011;4080;42.676;23.372;2023-05-07T05:54:53;11.57;;;9.63;;
8074;SDS011;4080;42.676;23.372;2023-05-07T05:57:21;11.17;;;10.03;;
8074;SDS011;4080;42.676;23.372;2023-05-07T05:59:47;13.47;;;10.60;;
8074;SDS011;4080;42.676;23.372;2023-05-07T06:02:14;13.03;;;10.33;;
8074;SDS011;4080;42.676;23.372;2023-05-07T06:04:41;12.57;;;10.37;;
8074;SDS011;4080;42.676;23.372;2023-05-07T06:07:08;12.17;;;10.90;;
8074;SDS011;4080;42.676;23.372;2023-05-07T06:09:34;12.67;;;10.33;;
8074;SDS011;4080;42.676;23.372;2023-05-07T06:12:01;10.83;;;9.83;;
8074;SDS011;4080;42.676;23.372;2023-05-07T06:14:29;12.07;;;10.60;;
8074;SDS011;4080;42.676;23.372;2023-05-07T06:16:56;11.37;;;9.70;;
8074;SDS011;4080;42.676;23.372;2023-05-07T06:19:23;11.47;;;10.40;;
8074;SDS011;4080;42.676;23.372;2023-05-07T06:21:51;11.53;;;10.10;;
8074;SDS011;4080;42.676;23.372;2023-05-07T06:24:18;12.20;;;10.30;;
8074;SDS011;4080;42.676;23.372;2023-05-07T06:26:45;11.33;;;10.17;;
8074;SDS011;4080;42.676;23.372;2023-05-07T06:29:11;11.10;;;10.07;;
8074;SDS011;4080;42.676;23.372;2023-05-07T06:31:39;12.80;;;11.00;;
8074;SDS011;4080;42.676;23.372;2023-05-07T06:34:06;12.60;;;9.93;;
8074;SDS011;4080;42.676;23.372;2023-05-07T06:36:33;11.53;;;10.17;;
8074;SDS011;4080;42.676;23.372;2023-05-07T06:39:00;15.30;;;9.83;;
8074;SDS011;4080;42.676;23.372;2023-05-07T06:41:27;12.20;;;9.90;;
8074;SDS011;4080;42.676;23.372;2023-05-07T06:43:54;10.53;;;9.43;;
8074;SDS011;4080;42.676;23.372;2023-05-07T06:46:20;10.70;;;9.43;;
8074;SDS011;4080;42.676;23.372;2023-05-07T06:48:48;11.60;;;10.17;;
8074;SDS011;4080;42.676;23.372;2023-05-07T06:51:15;11.00;;;9.27;;
8074;SDS011;4080;42.676;23.372;2023-05-07T06:53:42;12.00;;;9.20;;
8074;SDS011;4080;42.676;23.372;2023-05-07T06:56:08;11.23;;;10.03;;
8074;SDS011;4080;42.676;23.372;2023-05-07T06:58:35;10.73;;;9.63;;
8074;SDS011;4080;42.676;23.372;2023-05-07T07:01:03;12.90;;;9.60;;
8074;SDS011;4080;42.676;23.372;2023-05-07T07:03:30;11.93;;;9.73;;
8074;SDS011;4080;42.676;23.372;2023-05-07T07:05:58;11.83;;;10.00;;
8074;SDS011;4080;42.676;23.372;2023-05-07T07:08:26;16.03;;;9.90;;
8074;SDS011;4080;42.676;23.372;2023-05-07T07:10:53;12.00;;;9.90;;
8074;SDS011;4080;42.676;23.372;2023-05-07T07:13:20;11.20;;;9.03;;
8074;SDS011;4080;42.676;23.372;2023-05-07T07:15:46;13.90;;;10.13;;
8074;SDS011;4080;42.676;23.372;2023-05-07T07:18:13;10.97;;;9.83;;
8074;SDS011;4080;42.676;23.372;2023-05-07T07:20:40;12.03;;;10.23;;
8074;SDS011;4080;42.676;23.372;2023-05-07T07:23:08;13.37;;;10.27;;
8074;SDS011;4080;42.676;23.372;2023-05-07T07:25:35;11.33;;;10.17;;
8074;SDS011;4080;42.676;23.372;2023-05-07T07:28:01;12.53;;;10.97;;
8074;SDS011;4080;42.676;23.372;2023-05-07T07:30:28;12.83;;;11.47;;
8074;SDS011;4080;42.676;23.372;2023-05-07T07:32:55;14.40;;;11.50;;
8074;SDS011;4080;42.676;23.372;2023-05-07T07:35:27;13.20;;;11.83;;
8074;SDS011;4080;42.676;23.372;2023-05-07T07:37:53;13.43;;;11.43;;
8074;SDS011;4080;42.676;23.372;2023-05-07T07:40:22;13.07;;;11.37;;
8074;SDS011;4080;42.676;23.372;2023-05-07T07:42:51;13.43;;;11.50;;
8074;SDS011;4080;42.676;23.372;2023-05-07T07:45:18;12.07;;;10.97;;
8074;SDS011;4080;42.676;23.372;2023-05-07T07:47:44;12.10;;;10.90;;
8074;SDS011;4080;42.676;23.372;2023-05-07T07:50:11;12.33;;;10.93;;
8074;SDS011;4080;42.676;23.372;2023-05-07T07:52:38;12.33;;;10.43;;
8074;SDS011;4080;42.676;23.372;2023-05-07T07:55:06;13.00;;;11.87;;
8074;SDS011;4080;42.676;23.372;2023-05-07T07:57:34;16.57;;;11.90;;
8074;SDS011;4080;42.676;23.372;2023-05-07T08:00:01;18.70;;;11.77;;
8074;SDS011;4080;42.676;23.372;2023-05-07T08:02:28;15.40;;;11.40;;
8074;SDS011;4080;42.676;23.372;2023-05-07T08:04:55;12.30;;;11.00;;
8074;SDS011;4080;42.676;23.372;2023-05-07T08:07:21;14.60;;;10.80;;
8074;SDS011;4080;42.676;23.372;2023-05-07T08:09:48;12.13;;;10.63;;
8074;SDS011;4080;42.676;23.372;2023-05-07T08:12:15;12.63;;;10.47;;
8074;SDS011;4080;42.676;23.372;2023-05-07T08:14:43;12.27;;;9.73;;
8074;SDS011;4080;42.676;23.372;2023-05-07T08:17:10;12.07;;;10.60;;
8074;SDS011;4080;42.676;23.372;2023-05-07T08:19:36;20.87;;;10.50;;
8074;SDS011;4080;42.676;23.372;2023-05-07T08:22:03;13.47;;;10.93;;
8074;SDS011;4080;42.676;23.372;2023-05-07T08:24:30;12.17;;;10.30;;
8074;SDS011;4080;42.676;23.372;2023-05-07T08:26:57;12.83;;;11.07;;
8074;SDS011;4080;42.676;23.372;2023-05-07T08:29:24;12.70;;;10.13;;
8074;SDS011;4080;42.676;23.372;2023-05-07T08:31:52;13.47;;;10.53;;
8074;SDS011;4080;42.676;23.372;2023-05-07T08:34:19;12.10;;;10.43;;
8074;SDS011;4080;42.676;23.372;2023-05-07T08:36:45;11.47;;;9.90;;
8074;SDS011;4080;42.676;23.372;2023-05-07T08:39:13;11.33;;;10.20;;
8074;SDS011;4080;42.676;23.372;2023-05-07T08:41:41;10.73;;;9.40;;
8074;SDS011;4080;42.676;23.372;2023-05-07T08:44:11;10.57;;;9.50;;
8074;SDS011;4080;42.676;23.372;2023-05-07T08:46:39;9.60;;;8.70;;
8074;SDS011;4080;42.676;23.372;2023-05-07T08:49:09;11.90;;;9.27;;
8074;SDS011;4080;42.676;23.372;2023-05-07T08:51:36;11.67;;;9.37;;
8074;SDS011;4080;42.676;23.372;2023-05-07T08:54:03;10.10;;;8.40;;
8074;SDS011;4080;42.676;23.372;2023-05-07T08:56:32;8.90;;;8.00;;
8074;SDS011;4080;42.676;23.372;2023-05-07T08:58:59;9.17;;;7.97;;
8074;SDS011;4080;42.676;23.372;2023-05-07T09:01:25;8.20;;;7.10;;
8074;SDS011;4080;42.676;23.372;2023-05-07T09:03:52;8.77;;;6.83;;
8074;SDS011;4080;42.676;23.372;2023-05-07T09:06:21;8.43;;;6.63;;
8074;SDS011;4080;42.676;23.372;2023-05-07T09:08:51;7.70;;;7.03;;
8074;SDS011;4080;42.676;23.372;2023-05-07T09:11:19;9.70;;;6.30;;
8074;SDS011;4080;42.676;23.372;2023-05-07T09:13:47;7.37;;;6.40;;
8074;SDS011;4080;42.676;23.372;2023-05-07T09:16:15;7.93;;;6.37;;
8074;SDS011;4080;42.676;23.372;2023-05-07T09:18:42;6.20;;;5.70;;
8074;SDS011;4080;42.676;23.372;2023-05-07T09:21:10;29.57;;;26.27;;
8074;SDS011;4080;42.676;23.372;2023-05-07T09:23:38;8.83;;;6.63;;
8074;SDS011;4080;42.676;23.372;2023-05-07T09:26:06;8.53;;;6.40;;
8074;SDS011;4080;42.676;23.372;2023-05-07T09:28:37;10.83;;;6.30;;
8074;SDS011;4080;42.676;23.372;2023-05-07T09:31:05;16.33;;;6.47;;
8074;SDS011;4080;42.676;23.372;2023-05-07T09:33:31;10.63;;;6.70;;
8074;SDS011;4080;42.676;23.372;2023-05-07T09:35:58;8.87;;;6.13;;
8074;SDS011;4080;42.676;23.372;2023-05-07T09:38:28;7.70;;;6.03;;
8074;SDS011;4080;42.676;23.372;2023-05-07T09:41:02;8.27;;;6.20;;
8074;SDS011;4080;42.676;23.372;2023-05-07T09:43:31;5.90;;;5.30;;
8074;SDS011;4080;42.676;23.372;2023-05-07T09:45:59;6.30;;;5.37;;
8074;SDS011;4080;42.676;23.372;2023-05-07T09:48:34;6.53;;;5.33;;
8074;SDS011;4080;42.676;23.372;2023-05-07T09:51:03;9.07;;;5.30;;
8074;SDS011;4080;42.676;23.372;2023-05-07T09:53:37;5.90;;;5.30;;
8074;SDS011;4080;42.676;23.372;2023-05-07T09:56:07;6.30;;;5.70;;
8074;SDS011;4080;42.676;23.372;2023-05-07T09:58:34;6.10;;;5.50;;
8074;SDS011;4080;42.676;23.372;2023-05-07T10:01:03;5.83;;;5.00;;
8074;SDS011;4080;42.676;23.372;2023-05-07T10:03:30;4.83;;;4.10;;
8074;SDS011;4080;42.676;23.372;2023-05-07T10:05:59;4.90;;;4.50;;
8074;SDS011;4080;42.676;23.372;2023-05-07T10:08:27;6.17;;;5.00;;
8074;SDS011;4080;42.676;23.372;2023-05-07T10:10:56;5.33;;;4.80;;
8074;SDS011;4080;42.676;23.372;2023-05-07T10:13:24;4.97;;;4.43;;
8074;SDS011;4080;42.676;23.372;2023-05-07T10:15:51;4.70;;;4.30;;
8074;SDS011;4080;42.676;23.372;2023-05-07T10:18:18;5.80;;;4.30;;
8074;SDS011;4080;42.676;23.372;2023-05-07T10:20:48;6.00;;;4.40;;
8074;SDS011;4080;42.676;23.372;2023-05-07T10:23:19;4.13;;;3.73;;
8074;SDS011;4080;42.676;23.372;2023-05-07T10:25:50;5.50;;;4.00;;
8074;SDS011;4080;42.676;23.372;2023-05-07T10:28:16;3.80;;;3.50;;
8074;SDS011;4080;42.676;23.372;2023-05-07T10:30:50;4.00;;;3.70;;
8074;SDS011;4080;42.676;23.372;2023-05-07T10:33:27;5.33;;;3.90;;
8074;SDS011;4080;42.676;23.372;2023-05-07T10:35:56;5.67;;;3.57;;
8074;SDS011;4080;42.676;23.372;2023-05-07T10:38:26;4.60;;;4.20;;
8074;SDS011;4080;42.676;23.372;2023-05-07T10:40:54;6.63;;;4.23;;
8074;SDS011;4080;42.676;23.372;2023-05-07T10:43:20;4.30;;;4.00;;
8074;SDS011;4080;42.676;23.372;2023-05-07T10:51:38;5.17;;;4.00;;
8074;SDS011;4080;42.676;23.372;2023-05-07T10:54:20;4.73;;;3.77;;
8074;SDS011;4080;42.676;23.372;2023-05-07T10:56:49;4.93;;;4.53;;
8074;SDS011;4080;42.676;23.372;2023-05-07T10:59:35;5.43;;;3.93;;
8074;SDS011;4080;42.676;23.372;2023-05-07T11:02:10;4.47;;;4.07;;
8074;SDS011;4080;42.676;23.372;2023-05-07T11:04:39;5.73;;;4.53;;
8074;SDS011;4080;42.676;23.372;2023-05-07T11:07:18;8.60;;;4.80;;
8074;SDS011;4080;42.676;23.372;2023-05-07T11:10:00;4.80;;;4.40;;
8074;SDS011;4080;42.676;23.372;2023-05-07T11:12:47;5.20;;;4.33;;
8074;SDS011;4080;42.676;23.372;2023-05-07T11:15:40;5.40;;;4.50;;
8074;SDS011;4080;42.676;23.372;2023-05-07T11:18:12;5.53;;;4.77;;
8074;SDS011;4080;42.676;23.372;2023-05-07T11:20:52;5.20;;;4.67;;
8074;SDS011;4080;42.676;23.372;2023-05-07T11:26:41;5.77;;;4.77;;
8074;SDS011;4080;42.676;23.372;2023-05-07T11:29:13;6.87;;;4.50;;
8074;SDS011;4080;42.676;23.372;2023-05-07T11:31:40;4.70;;;4.30;;
8074;SDS011;4080;42.676;23.372;2023-05-07T11:34:08;5.60;;;4.30;;
8074;SDS011;4080;42.676;23.372;2023-05-07T11:36:41;6.83;;;4.73;;
8074;SDS011;4080;42.676;23.372;2023-05-07T11:39:23;5.00;;;4.50;;
8074;SDS011;4080;42.676;23.372;2023-05-07T11:41:53;4.87;;;4.37;;
8074;SDS011;4080;42.676;23.372;2023-05-07T11:44:20;4.97;;;4.40;;
8074;SDS011;4080;42.676;23.372;2023-05-07T11:46:46;6.70;;;4.53;;
8074;SDS011;4080;42.676;23.372;2023-05-07T11:49:15;4.53;;;4.20;;
8074;SDS011;4080;42.676;23.372;2023-05-07T11:51:42;5.00;;;4.60;;
8074;SDS011;4080;42.676;23.372;2023-05-07T11:54:11;5.10;;;4.60;;
8074;SDS011;4080;42.676;23.372;2023-05-07T11:56:42;6.37;;;4.50;;
8074;SDS011;4080;42.676;23.372;2023-05-07T11:59:10;7.87;;;4.40;;
8074;SDS011;4080;42.676;23.372;2023-05-07T12:01:37;5.23;;;4.73;;
8074;SDS011;4080;42.676;23.372;2023-05-07T12:04:03;5.50;;;4.57;;
8074;SDS011;4080;42.676;23.372;2023-05-07T12:06:35;16.23;;;14.60;;
8074;SDS011;4080;42.676;23.372;2023-05-07T12:09:02;5.70;;;4.90;;
8074;SDS011;4080;42.676;23.372;2023-05-07T12:11:29;7.23;;;5.70;;
8074;SDS011;4080;42.676;23.372;2023-05-07T12:13:56;5.47;;;4.97;;
8074;SDS011;4080;42.676;23.372;2023-05-07T12:16:23;5.77;;;4.93;;
8074;SDS011;4080;42.676;23.372;2023-05-07T12:18:50;7.00;;;4.93;;
8074;SDS011;4080;42.676;23.372;2023-05-07T12:21:20;7.10;;;5.10;;
8074;SDS011;4080;42.676;23.372;2023-05-07T12:23:48;6.87;;;5.27;;
8074;SDS011;4080;42.676;23.372;2023-05-07T12:26:15;6.33;;;4.90;;
8074;SDS011;4080;42.676;23.372;2023-05-07T12:28:41;5.50;;;5.00;;
8074;SDS011;4080;42.676;23.372;2023-05-07T12:31:08;7.03;;;5.33;;
8074;SDS011;4080;42.676;23.372;2023-05-07T12:33:35;5.37;;;4.77;;
8074;SDS011;4080;42.676;23.372;2023-05-07T12:36:03;6.53;;;4.60;;
8074;SDS011;4080;42.676;23.372;2023-05-07T12:38:35;4.43;;;4.10;;
8074;SDS011;4080;42.676;23.372;2023-05-07T12:41:05;4.40;;;4.00;;
8074;SDS011;4080;42.676;23.372;2023-05-07T12:43:32;5.20;;;4.70;;
8074;SDS011;4080;42.676;23.372;2023-05-07T12:46:00;4.80;;;4.07;;
8074;SDS011;4080;42.676;23.372;2023-05-07T12:48:28;4.77;;;4.20;;
8074;SDS011;4080;42.676;23.372;2023-05-07T12:50:55;4.33;;;3.93;;
8074;SDS011;4080;42.676;23.372;2023-05-07T12:53:23;4.23;;;3.87;;
8074;SDS011;4080;42.676;23.372;2023-05-07T12:55:51;4.20;;;3.90;;
8074;SDS011;4080;42.676;23.372;2023-05-07T12:58:24;17.00;;;15.30;;
8074;SDS011;4080;42.676;23.372;2023-05-07T13:00:52;4.70;;;3.80;;
8074;SDS011;4080;42.676;23.372;2023-05-07T13:03:23;4.13;;;3.73;;
8074;SDS011;4080;42.676;23.372;2023-05-07T13:05:50;3.97;;;3.57;;
8074;SDS011;4080;42.676;23.372;2023-05-07T13:08:27;3.63;;;3.33;;
8074;SDS011;4080;42.676;23.372;2023-05-07T13:10:55;4.40;;;3.63;;
8074;SDS011;4080;42.676;23.372;2023-05-07T13:13:24;3.50;;;3.20;;
8074;SDS011;4080;42.676;23.372;2023-05-07T13:15:50;3.83;;;3.00;;
8074;SDS011;4080;42.676;23.372;2023-05-07T13:18:17;3.83;;;3.23;;
8074;SDS011;4080;42.676;23.372;2023-05-07T13:20:44;3.70;;;3.40;;
8074;SDS011;4080;42.676;23.372;2023-05-07T13:23:10;4.13;;;3.13;;
8074;SDS011;4080;42.676;23.372;2023-05-07T13:25:37;4.20;;;3.70;;
8074;SDS011;4080;42.676;23.372;2023-05-07T13:28:04;3.40;;;3.10;;
8074;SDS011;4080;42.676;23.372;2023-05-07T13:30:32;3.90;;;3.50;;
8074;SDS011;4080;42.676;23.372;2023-05-07T13:32:58;3.70;;;3.30;;
8074;SDS011;4080;42.676;23.372;2023-05-07T13:35:25;3.83;;;3.53;;
8074;SDS011;4080;42.676;23.372;2023-05-07T13:37:52;4.10;;;3.70;;
8074;SDS011;4080;42.676;23.372;2023-05-07T13:40:20;4.13;;;3.50;;
8074;SDS011;4080;42.676;23.372;2023-05-07T13:42:47;3.73;;;3.40;;
8074;SDS011;4080;42.676;23.372;2023-05-07T13:45:13;6.10;;;3.70;;
8074;SDS011;4080;42.676;23.372;2023-05-07T13:47:42;3.50;;;3.20;;
8074;SDS011;4080;42.676;23.372;2023-05-07T13:50:09;4.00;;;3.60;;
8074;SDS011;4080;42.676;23.372;2023-05-07T13:52:39;3.90;;;3.60;;
8074;SDS011;4080;42.676;23.372;2023-05-07T13:55:08;4.47;;;3.50;;
8074;SDS011;4080;42.676;23.372;2023-05-07T13:57:35;4.03;;;3.60;;
8074;SDS011;4080;42.676;23.372;2023-05-07T14:00:02;5.63;;;3.60;;
8074;SDS011;4080;42.676;23.372;2023-05-07T14:02:30;9.47;;;3.27;;
8074;SDS011;4080;42.676;23.372;2023-05-07T14:04:58;5.03;;;2.90;;
8074;SDS011;4080;42.676;23.372;2023-05-07T14:07:24;7.07;;;3.80;;
8074;SDS011;4080;42.676;23.372;2023-05-07T14:09:51;7.73;;;3.40;;
8074;SDS011;4080;42.676;23.372;2023-05-07T14:12:18;3.83;;;3.53;;
8074;SDS011;4080;42.676;23.372;2023-05-07T14:14:44;12.67;;;9.77;;
8074;SDS011;4080;42.676;23.372;2023-05-07T14:17:11;5.67;;;5.17;;
8074;SDS011;4080;42.676;23.372;2023-05-07T14:19:38;4.30;;;3.50;;
8074;SDS011;4080;42.676;23.372;2023-05-07T14:22:06;4.93;;;3.57;;
8074;SDS011;4080;42.676;23.372;2023-05-07T14:24:33;4.00;;;3.57;;
8074;SDS011;4080;42.676;23.372;2023-05-07T14:27:00;6.80;;;3.60;;
8074;SDS011;4080;42.676;23.372;2023-05-07T14:29:27;3.80;;;3.50;;
8074;SDS011;4080;42.676;23.372;2023-05-07T14:31:53;4.40;;;3.47;;
8074;SDS011;4080;42.676;23.372;2023-05-07T14:34:20;4.70;;;3.40;;
8074;SDS011;4080;42.676;23.372;2023-05-07T14:36:47;5.57;;;4.30;;
8074;SDS011;4080;42.676;23.372;2023-05-07T14:39:15;4.53;;;3.57;;
8074;SDS011;4080;42.676;23.372;2023-05-07T14:41:41;5.73;;;3.77;;
8074;SDS011;4080;42.676;23.372;2023-05-07T14:44:08;4.17;;;3.77;;
8074;SDS011;4080;42.676;23.372;2023-05-07T14:46:35;6.23;;;3.57;;
8074;SDS011;4080;42.676;23.372;2023-05-07T14:49:02;5.43;;;3.70;;
8074;SDS011;4080;42.676;23.372;2023-05-07T14:51:29;5.87;;;3.77;;
8074;SDS011;4080;42.676;23.372;2023-05-07T14:53:56;3.90;;;3.60;;
8074;SDS011;4080;42.676;23.372;2023-05-07T14:56:24;4.13;;;3.73;;
8074;SDS011;4080;42.676;23.372;2023-05-07T14:58:50;4.23;;;3.83;;
8074;SDS011;4080;42.676;23.372;2023-05-07T15:01:17;3.90;;;3.60;;